Time;durP1;ratioP1;P1;durP2;ratioP2;P2;SDS_P1;SDS_P2;PMS_P1;PMS_P2;Temp;Humidity;BMP_temperature;BMP_pressure;BME280_temperature;BME280_humidity;BME280_pressure;Samples;Min_cycle;Max_cycle;Signal;HPM_P1;HPM_P2
2023/04/30 00:01:36;;;;;;;216.17;201.67;;;11.20;33.90;;;;;;5012333;28;20262;-73
2023/04/30 00:04:01;;;;;;;258.07;241.93;;;11.20;33.80;;;;;;5012422;28;20534;-73
2023/04/30 00:06:27;;;;;;;209.07;194.90;;;11.30;33.80;;;;;;5012439;28;20204;-73
2023/04/30 00:08:52;;;;;;;208.63;194.77;;;11.30;32.60;;;;;;5012408;28;20180;-75
2023/04/30 00:11:18;;;;;;;332.33;310.77;;;11.40;32.20;;;;;;5012527;28;20203;-75
2023/04/30 00:13:44;;;;;;;255.50;238.90;;;11.40;32.20;;;;;;5012309;28;20223;-72
2023/04/30 00:16:10;;;;;;;251.03;235.43;;;11.40;32.20;;;;;;5012377;28;20210;-73
2023/04/30 00:18:35;;;;;;;191.73;178.47;;;11.40;32.20;;;;;;5012451;28;20229;-73
2023/04/30 00:21:01;;;;;;;322.00;302.53;;;11.40;32.20;;;;;;5012350;28;20423;-73
2023/04/30 00:23:27;;;;;;;204.67;190.13;;;11.50;32.30;;;;;;5012053;28;20184;-73
2023/04/30 00:25:52;;;;;;;234.10;219.20;;;11.40;32.20;;;;;;5012247;28;20206;-72
2023/04/30 00:28:18;;;;;;;276.83;259.80;;;11.50;32.30;;;;;;5012395;28;20176;-73
2023/04/30 00:30:44;;;;;;;236.30;221.10;;;11.50;31.40;;;;;;5012528;28;20173;-73
2023/04/30 00:33:10;;;;;;;300.57;282.27;;;11.60;30.60;;;;;;5012031;28;20183;-73
2023/04/30 00:35:35;;;;;;;320.13;300.17;;;11.50;30.40;;;;;;5012650;28;20438;-74
2023/04/30 00:38:01;;;;;;;284.53;267.10;;;11.50;30.80;;;;;;5011010;28;20226;-74
2023/04/30 00:40:26;;;;;;;226.33;210.10;;;11.50;31.10;;;;;;5012392;28;20175;-74
2023/04/30 00:42:54;;;;;;;302.97;284.47;;;11.50;31.40;;;;;;5012075;28;20181;-73
2023/04/30 00:45:21;;;;;;;185.20;171.53;;;11.50;31.50;;;;;;5010606;28;20225;-73
2023/04/30 00:47:47;;;;;;;258.03;241.37;;;11.40;32.20;;;;;;5013032;28;20842;-73
2023/04/30 00:50:14;;;;;;;243.77;228.70;;;11.40;32.20;;;;;;5016323;28;20772;-73
2023/04/30 00:52:41;;;;;;;263.00;246.93;;;11.40;32.60;;;;;;5015956;28;20472;-74
2023/04/30 00:55:08;;;;;;;254.97;239.37;;;11.40;32.40;;;;;;5016154;28;20439;-75
2023/04/30 00:57:35;;;;;;;264.47;248.63;;;11.40;32.20;;;;;;5016077;28;20491;-74
2023/04/30 01:00:01;;;;;;;281.57;264.33;;;11.40;32.20;;;;;;5016107;28;20531;-74
2023/04/30 01:02:27;;;;;;;261.10;245.50;;;11.40;32.20;;;;;;5015804;28;20634;-75
2023/04/30 01:04:54;;;;;;;253.47;238.43;;;11.40;32.20;;;;;;5015997;28;20594;-73
2023/04/30 01:07:19;;;;;;;226.37;211.50;;;11.50;32.30;;;;;;5015957;28;20912;-73
2023/04/30 01:09:45;;;;;;;314.13;294.87;;;11.40;32.20;;;;;;5016355;28;20670;-73
2023/04/30 01:12:22;;;;;;;265.13;249.07;;;11.40;32.20;;;;;;5016947;28;20184;-74
2023/04/30 01:15:10;;;;;;;392.20;365.53;;;11.30;33.20;;;;;;5017274;28;20288;-74
2023/04/30 01:17:54;;;;;;;371.90;349.93;;;11.30;34.10;;;;;;5013268;28;20458;-75
2023/04/30 01:20:20;;;;;;;226.10;211.70;;;11.30;34.40;;;;;;5027437;28;20426;-73
2023/04/30 01:22:54;;;;;;;345.57;324.50;;;11.30;34.10;;;;;;5017730;28;20427;-74
2023/04/30 01:25:38;;;;;;;322.37;303.40;;;11.30;34.30;;;;;;5017407;28;20467;-74
2023/04/30 01:28:21;;;;;;;279.17;262.10;;;11.20;34.30;;;;;;5017743;28;20403;-74
2023/04/30 01:30:47;;;;;;;274.57;257.27;;;11.20;34.80;;;;;;5017467;28;20783;-74
2023/04/30 01:33:13;;;;;;;341.80;320.37;;;11.30;34.10;;;;;;5018461;28;20415;-74
2023/04/30 01:36:07;;;;;;;340.17;319.73;;;11.30;34.20;;;;;;5017298;28;20438;-74
2023/04/30 01:39:20;;;;;;;230.27;215.50;;;11.20;34.60;;;;;;5016074;28;20574;-73
2023/04/30 01:42:11;;;;;;;255.97;240.83;;;11.20;34.90;;;;;;4993360;28;20427;-73
2023/04/30 01:45:08;;;;;;;255.30;240.17;;;11.20;35.00;;;;;;5013848;28;20463;-74
2023/04/30 01:47:49;;;;;;;297.13;279.07;;;11.20;34.60;;;;;;5013868;28;20518;-73
2023/04/30 01:50:30;;;;;;;288.47;271.47;;;11.20;34.80;;;;;;5015199;28;20415;-73
2023/04/30 01:52:59;;;;;;;233.10;217.37;;;11.10;35.30;;;;;;5013973;28;20819;-73
2023/04/30 01:55:42;;;;;;;284.30;265.40;;;11.00;35.80;;;;;;5014958;28;20443;-73
2023/04/30 01:58:13;;;;;;;332.13;312.13;;;11.00;36.10;;;;;;5014968;28;20422;-74
2023/04/30 02:00:39;;;;;;;355.13;332.87;;;11.00;35.60;;;;;;5013651;28;20968;-74
2023/04/30 02:03:05;;;;;;;370.40;347.07;;;10.90;36.00;;;;;;5014718;28;20422;-73
2023/04/30 02:05:31;;;;;;;229.53;214.27;;;10.80;36.90;;;;;;5014540;28;20971;-73
2023/04/30 02:07:56;;;;;;;367.70;345.33;;;10.80;36.90;;;;;;5015037;28;20183;-72
2023/04/30 02:10:26;;;;;;;445.80;418.33;;;10.70;36.80;;;;;;5014709;28;20208;-73
2023/04/30 02:12:51;;;;;;;379.40;354.90;;;10.70;36.80;;;;;;5014297;28;20231;-73
2023/04/30 02:15:17;;;;;;;298.27;278.50;;;10.60;36.70;;;;;;5014574;28;20446;-74
2023/04/30 02:17:43;;;;;;;445.73;415.27;;;10.50;37.40;;;;;;5014301;28;20419;-74
2023/04/30 02:20:09;;;;;;;327.67;306.53;;;10.50;37.60;;;;;;5014283;28;20634;-74
2023/04/30 02:22:35;;;;;;;372.60;349.47;;;10.40;38.10;;;;;;5012820;28;20234;-73
2023/04/30 02:25:01;;;;;;;269.53;253.10;;;10.40;38.50;;;;;;5014241;28;20790;-73
2023/04/30 02:27:30;;;;;;;449.33;420.07;;;10.30;38.70;;;;;;5014438;28;20870;-73
2023/04/30 02:29:56;;;;;;;458.57;433.93;;;10.20;39.20;;;;;;5014201;28;20415;-73
2023/04/30 02:32:22;;;;;;;451.20;425.97;;;10.20;40.50;;;;;;5014040;28;20422;-73
2023/04/30 02:34:47;;;;;;;427.87;402.87;;;10.10;40.60;;;;;;5014084;28;20677;-73
2023/04/30 02:37:13;;;;;;;496.47;468.27;;;10.10;41.40;;;;;;5013825;28;20419;-73
2023/04/30 02:39:40;;;;;;;346.80;326.67;;;10.00;41.30;;;;;;5012705;28;20182;-74
2023/04/30 02:42:06;;;;;;;389.10;367.23;;;10.00;41.30;;;;;;5013615;28;20183;-71
2023/04/30 02:44:32;;;;;;;486.03;458.87;;;9.90;42.50;;;;;;5012466;28;20898;-72
2023/04/30 02:46:58;;;;;;;504.83;476.07;;;9.90;43.30;;;;;;5013973;28;20479;-73
2023/04/30 02:49:24;;;;;;;373.73;350.57;;;9.80;43.60;;;;;;5014080;28;20419;-72
2023/04/30 02:51:49;;;;;;;567.23;533.67;;;9.80;43.40;;;;;;5013709;28;20186;-72
2023/04/30 02:54:15;;;;;;;266.83;250.53;;;9.70;44.20;;;;;;5014144;28;20246;-73
2023/04/30 02:56:40;;;;;;;526.27;495.90;;;9.70;44.50;;;;;;5013512;28;20199;-73
2023/04/30 02:59:07;;;;;;;421.63;397.87;;;9.60;43.80;;;;;;5012256;28;20188;-73
2023/04/30 03:01:32;;;;;;;295.30;278.70;;;9.60;44.90;;;;;;5018651;28;20297;-73
2023/04/30 03:03:58;;;;;;;482.00;454.20;;;9.50;45.00;;;;;;5033419;28;20989;-72
2023/04/30 03:06:24;;;;;;;533.97;504.00;;;9.40;45.40;;;;;;5033425;28;20212;-73
2023/04/30 03:08:49;;;;;;;570.33;537.40;;;9.40;45.10;;;;;;5033493;28;20186;-72
2023/04/30 03:11:15;;;;;;;536.00;504.93;;;9.30;46.30;;;;;;5033798;28;20205;-72
2023/04/30 03:13:42;;;;;;;620.87;586.90;;;9.30;46.80;;;;;;5033093;28;20194;-73
2023/04/30 03:16:07;;;;;;;579.23;545.73;;;9.30;46.20;;;;;;5032175;28;20567;-72
2023/04/30 03:18:33;;;;;;;325.97;307.17;;;9.20;47.50;;;;;;5034950;28;20424;-72
2023/04/30 03:21:01;;;;;;;615.00;580.23;;;9.10;48.30;;;;;;5033272;28;20183;-73
2023/04/30 03:23:28;;;;;;;400.47;379.53;;;9.00;48.60;;;;;;5032497;28;20183;-73
2023/04/30 03:25:53;;;;;;;581.57;548.37;;;8.90;50.00;;;;;;5032923;28;20457;-74
2023/04/30 03:28:19;;;;;;;328.43;310.17;;;8.90;49.30;;;;;;5032992;28;20543;-73
2023/04/30 03:30:44;;;;;;;611.03;576.00;;;8.90;50.50;;;;;;5029239;28;20230;-73
2023/04/30 03:33:10;;;;;;;463.83;438.77;;;8.90;50.30;;;;;;5021844;28;20572;-74
2023/04/30 03:35:35;;;;;;;338.90;320.43;;;8.80;51.30;;;;;;5019839;28;20207;-74
2023/04/30 03:38:01;;;;;;;592.73;558.23;;;8.90;51.40;;;;;;5020478;28;20219;-73
2023/04/30 03:40:27;;;;;;;419.07;395.97;;;8.80;50.00;;;;;;5020946;28;20183;-73
2023/04/30 03:42:52;;;;;;;494.30;465.70;;;8.80;52.00;;;;;;5022550;28;20217;-73
2023/04/30 03:45:18;;;;;;;593.23;558.20;;;8.70;50.30;;;;;;5022160;28;20214;-73
2023/04/30 03:47:44;;;;;;;505.80;477.80;;;8.60;51.00;;;;;;5021253;28;20182;-73
2023/04/30 03:50:10;;;;;;;326.53;306.57;;;8.50;51.10;;;;;;5020234;28;20783;-73
2023/04/30 03:52:36;;;;;;;491.67;463.50;;;8.50;51.10;;;;;;5020349;28;20418;-73
2023/04/30 03:55:06;;;;;;;465.27;437.70;;;8.50;51.10;;;;;;5022579;28;20456;-73
2023/04/30 03:57:32;;;;;;;306.30;289.27;;;8.40;51.00;;;;;;5021378;28;20183;-73
2023/04/30 03:59:58;;;;;;;426.17;400.80;;;8.30;50.90;;;;;;5021744;28;20420;-73
2023/04/30 04:02:24;;;;;;;373.83;352.53;;;8.20;51.60;;;;;;5022557;28;20476;-73
2023/04/30 04:04:50;;;;;;;305.23;287.53;;;8.20;50.80;;;;;;5025092;28;20540;-73
2023/04/30 04:07:16;;;;;;;294.37;276.57;;;8.10;50.70;;;;;;5031967;28;20444;-73
2023/04/30 04:09:41;;;;;;;369.50;347.13;;;8.10;52.80;;;;;;5031993;28;20461;-73
2023/04/30 04:12:07;;;;;;;353.57;333.27;;;8.00;51.70;;;;;;5031853;28;20469;-73
2023/04/30 04:14:33;;;;;;;321.07;302.17;;;8.00;52.00;;;;;;5032084;28;20224;-74
2023/04/30 04:17:04;;;;;;;299.17;280.83;;;7.90;51.40;;;;;;5032145;28;20177;-73
2023/04/30 04:19:30;;;;;;;322.90;304.70;;;7.90;52.50;;;;;;5030679;28;20197;-74
2023/04/30 04:21:56;;;;;;;349.50;328.27;;;7.90;53.10;;;;;;5030093;28;20678;-74
2023/04/30 04:24:23;;;;;;;366.43;345.00;;;7.80;51.60;;;;;;5030047;28;20204;-74
2023/04/30 04:26:50;;;;;;;377.70;355.57;;;7.80;53.50;;;;;;5031900;28;20504;-73
2023/04/30 04:29:15;;;;;;;359.93;338.93;;;7.70;53.80;;;;;;5031417;28;20451;-73
2023/04/30 04:31:41;;;;;;;326.90;307.17;;;7.90;53.10;;;;;;5020800;28;20821;-73
2023/04/30 04:34:07;;;;;;;219.47;204.67;;;7.90;52.10;;;;;;5020895;28;20279;-73
2023/04/30 04:36:33;;;;;;;336.10;315.53;;;7.90;50.60;;;;;;5020675;28;20422;-74
2023/04/30 04:39:00;;;;;;;315.57;297.03;;;7.90;51.00;;;;;;5020003;28;20589;-73
2023/04/30 04:41:35;;;;;;;329.77;310.00;;;8.00;51.70;;;;;;5022158;28;20483;-74
2023/04/30 04:44:02;;;;;;;378.70;355.83;;;8.00;50.60;;;;;;5044266;22;20998;-71
2023/04/30 04:46:28;;;;;;;334.43;314.97;;;8.10;51.90;;;;;;5018108;28;20567;-70
2023/04/30 04:48:54;;;;;;;216.50;201.63;;;8.10;51.90;;;;;;5012642;28;20778;-70
2023/04/30 04:51:19;;;;;;;196.93;183.27;;;8.30;51.50;;;;;;5012140;28;20415;-70
2023/04/30 04:53:46;;;;;;;330.53;311.73;;;;;;;;;;5012085;28;20628;-70
2023/04/30 04:56:11;;;;;;;263.87;246.87;;;8.40;51.40;;;;;;5012081;28;20206;-70
2023/04/30 04:58:37;;;;;;;443.17;417.27;;;8.60;49.50;;;;;;5012134;28;20555;-70
2023/04/30 05:01:04;;;;;;;308.17;290.27;;;8.60;48.60;;;;;;5012234;28;20222;-70
2023/04/30 05:03:31;;;;;;;400.50;377.37;;;8.80;45.40;;;;;;5012032;28;20210;-70
2023/04/30 05:05:56;;;;;;;253.23;237.47;;;8.90;45.20;;;;;;5012130;28;20469;-70
2023/04/30 05:08:22;;;;;;;361.87;340.70;;;9.00;44.60;;;;;;5012131;28;20427;-70
2023/04/30 05:10:48;;;;;;;284.70;266.87;;;9.00;43.90;;;;;;4994411;28;20187;-70
2023/04/30 05:13:13;;;;;;;270.17;253.57;;;9.10;43.20;;;;;;4994331;28;20555;-70
2023/04/30 05:15:39;;;;;;;443.63;419.00;;;9.10;44.00;;;;;;5011934;28;20200;-72
2023/04/30 05:18:04;;;;;;;354.97;334.80;;;9.30;43.40;;;;;;5011993;28;20249;-71
2023/04/30 05:20:30;;;;;;;249.77;233.87;;;9.40;41.70;;;;;;4994168;28;20278;-71
2023/04/30 05:22:55;;;;;;;296.03;278.87;;;9.50;41.80;;;;;;5011641;28;20180;-70
2023/04/30 05:25:21;;;;;;;174.83;161.23;;;9.60;41.90;;;;;;5011654;28;20645;-71
2023/04/30 05:27:46;;;;;;;463.47;437.43;;;9.90;42.20;;;;;;5011978;28;20546;-68
2023/04/30 05:30:14;;;;;;;203.77;189.27;;;10.10;36.80;;;;;;5011795;28;20187;-71
2023/04/30 05:32:40;;;;;;;181.67;167.77;;;10.50;34.60;;;;;;5011515;28;20187;-71
2023/04/30 05:35:06;;;;;;;247.63;232.17;;;11.10;32.20;;;;;;5014286;28;20818;-71
2023/04/30 05:37:32;;;;;;;258.40;242.67;;;12.30;26.30;;;;;;5015361;28;20188;-71
2023/04/30 05:39:57;;;;;;;592.83;554.03;;;14.30;21.80;;;;;;5015361;28;20422;-70
2023/04/30 05:42:23;;;;;;;162.80;150.73;;;16.90;11.50;;;;;;5015153;28;20176;-70
2023/04/30 05:44:48;;;;;;;739.73;680.13;;;19.20;7.00;;;;;;5015180;28;20289;-70
2023/04/30 05:47:14;;;;;;;226.40;209.93;;;20.60;3.40;;;;;;5015189;28;20183;-69
2023/04/30 05:49:40;;;;;;;425.53;398.23;;;22.20;1.00;;;;;;5015329;28;20638;-70
2023/04/30 05:52:06;;;;;;;455.70;423.10;;;23.20;1.00;;;;;;4997264;28;20520;-70
2023/04/30 05:54:31;;;;;;;581.77;533.80;;;24.60;1.00;;;;;;5014938;28;20196;-70
2023/04/30 05:56:57;;;;;;;664.27;608.40;;;;;;;;;;5015076;28;20618;-70
2023/04/30 05:59:23;;;;;;;633.20;580.73;;;25.70;1.00;;;;;;4997338;28;20180;-70
2023/04/30 06:01:49;;;;;;;642.70;590.10;;;26.40;1.00;;;;;;5020767;28;20422;-72
2023/04/30 06:04:15;;;;;;;825.40;754.27;;;26.90;1.00;;;;;;5034539;28;20531;-72
2023/04/30 06:06:40;;;;;;;798.90;730.27;;;27.50;1.00;;;;;;5016811;28;20461;-71
2023/04/30 06:09:06;;;;;;;677.20;623.60;;;27.20;1.00;;;;;;5016775;28;20587;-72
2023/04/30 06:11:32;;;;;;;803.43;738.53;;;25.90;1.00;;;;;;5034267;28;20225;-71
2023/04/30 06:13:58;;;;;;;767.93;704.23;;;24.50;1.00;;;;;;5017053;28;20179;-71
2023/04/30 06:16:23;;;;;;;705.40;645.90;;;22.70;1.00;;;;;;5034751;28;20211;-71
2023/04/30 06:18:49;;;;;;;905.97;831.50;;;21.60;1.00;;;;;;5034246;28;20187;-71
2023/04/30 06:21:14;;;;;;;609.70;563.47;;;20.30;1.00;;;;;;5034242;28;20654;-72
2023/04/30 06:23:40;;;;;;;620.17;572.77;;;18.90;1.00;;;;;;5033913;28;20180;-71
2023/04/30 06:26:06;;;;;;;832.43;771.07;;;17.80;1.40;;;;;;5033817;28;20238;-72
2023/04/30 06:28:31;;;;;;;640.77;593.80;;;17.10;3.60;;;;;;5034072;28;20176;-71
2023/04/30 06:30:57;;;;;;;716.40;663.60;;;16.80;4.10;;;;;;5034550;28;20262;-73
2023/04/30 06:33:22;;;;;;;434.57;403.60;;;16.40;5.10;;;;;;5033835;28;20182;-72
2023/04/30 06:35:49;;;;;;;807.87;752.07;;;16.00;5.70;;;;;;5033831;28;20199;-73
2023/04/30 06:38:16;;;;;;;651.50;607.93;;;15.90;6.80;;;;;;5034132;28;20171;-71
2023/04/30 06:40:42;;;;;;;491.33;456.60;;;15.70;6.80;;;;;;5016239;28;20450;-71
2023/04/30 06:43:08;;;;;;;633.17;592.70;;;15.50;7.80;;;;;;5016212;28;20426;-71
2023/04/30 06:45:34;;;;;;;421.70;392.77;;;15.20;8.50;;;;;;5033034;28;20523;-70
2023/04/30 06:48:00;;;;;;;440.13;410.83;;;15.30;8.40;;;;;;5034120;28;20175;-69
2023/04/30 06:50:25;;;;;;;554.80;517.43;;;15.00;8.70;;;;;;5033992;28;20517;-68
2023/04/30 06:52:51;;;;;;;435.13;407.37;;;15.10;9.00;;;;;;5033750;28;20172;-69
2023/04/30 06:55:17;;;;;;;616.60;577.20;;;15.00;9.50;;;;;;5033937;28;20572;-69
2023/04/30 06:57:42;;;;;;;457.73;427.70;;;14.80;10.10;;;;;;5033882;28;20660;-69
2023/04/30 07:00:08;;;;;;;448.07;419.83;;;14.80;10.20;;;;;;5033795;28;20175;-69
2023/04/30 07:02:34;;;;;;;462.30;432.73;;;14.50;10.60;;;;;;5026755;28;20180;-69
2023/04/30 07:05:00;;;;;;;486.37;454.70;;;14.50;11.60;;;;;;5029535;28;20469;-69
2023/04/30 07:07:25;;;;;;;579.23;540.00;;;14.40;11.20;;;;;;5029153;28;20992;-69
2023/04/30 07:09:52;;;;;;;545.27;509.80;;;14.40;11.40;;;;;;5029847;28;20700;-69
2023/04/30 07:12:18;;;;;;;275.87;256.40;;;14.50;11.30;;;;;;5011443;28;20313;-70
2023/04/30 07:14:43;;;;;;;624.10;584.47;;;14.80;10.80;;;;;;5026889;28;20558;-69
2023/04/30 07:17:10;;;;;;;287.83;267.00;;;15.20;11.00;;;;;;5009334;28;20215;-70
2023/04/30 07:19:35;;;;;;;582.03;544.67;;;15.40;10.20;;;;;;5009480;28;20533;-69
2023/04/30 07:22:01;;;;;;;520.70;484.63;;;15.50;9.00;;;;;;5007469;28;20426;-69
2023/04/30 07:24:27;;;;;;;675.70;630.07;;;15.60;9.10;;;;;;5009591;28;20735;-69
2023/04/30 07:26:52;;;;;;;565.67;527.50;;;15.50;9.00;;;;;;5009085;28;20494;-69
2023/04/30 07:29:18;;;;;;;503.43;471.20;;;15.40;9.50;;;;;;5008907;28;20190;-69
2023/04/30 07:31:43;;;;;;;443.60;413.33;;;15.70;9.70;;;;;;5009363;28;20184;-69
2023/04/30 07:34:09;;;;;;;471.03;437.40;;;15.90;9.20;;;;;;5009590;28;20204;-70
2023/04/30 07:36:34;;;;;;;684.17;634.33;;;16.20;8.00;;;;;;5013018;28;20183;-70
2023/04/30 07:39:00;;;;;;;530.43;491.17;;;16.20;7.00;;;;;;5032913;28;20214;-69
2023/04/30 07:41:25;;;;;;;474.93;438.87;;;16.40;6.70;;;;;;5032757;28;20552;-70
2023/04/30 07:43:51;;;;;;;426.73;393.13;;;17.00;5.50;;;;;;5031778;28;20641;-70
2023/04/30 07:46:17;;;;;;;456.17;421.80;;;17.50;4.60;;;;;;5032827;28;20199;-70
2023/04/30 07:48:43;;;;;;;570.43;528.03;;;17.60;4.50;;;;;;5033331;28;20186;-69
2023/04/30 07:51:08;;;;;;;632.17;583.70;;;17.40;3.90;;;;;;5032899;28;20417;-69
2023/04/30 07:53:34;;;;;;;541.27;504.77;;;17.00;4.80;;;;;;5031875;28;20198;-69
2023/04/30 07:55:59;;;;;;;461.43;426.73;;;17.40;4.60;;;;;;5032594;28;20253;-68
2023/04/30 07:58:25;;;;;;;261.20;239.13;;;17.50;4.70;;;;;;5031869;28;20202;-69
2023/04/30 08:00:51;;;;;;;654.83;604.77;;;17.90;4.00;;;;;;5015221;28;20202;-70
2023/04/30 08:03:16;;;;;;;536.17;493.77;;;18.40;1.00;;;;;;5031527;28;20190;-69
2023/04/30 08:05:42;;;;;;;496.93;460.37;;;18.60;1.00;;;;;;5032468;28;20207;-69
2023/04/30 08:08:07;;;;;;;590.07;544.87;;;18.80;1.00;;;;;;5032066;28;20193;-69
2023/04/30 08:10:33;;;;;;;620.33;571.83;;;19.00;1.00;;;;;;5032482;28;20183;-69
2023/04/30 08:12:59;;;;;;;445.17;412.93;;;19.70;1.00;;;;;;5031934;28;20172;-69
2023/04/30 08:15:25;;;;;;;686.60;630.37;;;20.30;1.00;;;;;;5031817;28;20250;-70
2023/04/30 08:17:51;;;;;;;610.63;562.23;;;21.20;1.00;;;;;;5032690;28;20223;-69
2023/04/30 08:20:17;;;;;;;876.17;795.80;;;21.90;1.00;;;;;;5032295;28;20846;-68
2023/04/30 08:22:44;;;;;;;575.40;532.80;;;20.50;1.00;;;;;;5030921;28;20191;-70
2023/04/30 08:25:11;;;;;;;512.07;473.00;;;19.50;1.00;;;;;;5031759;28;21013;-68
2023/04/30 08:27:37;;;;;;;620.57;573.87;;;20.10;1.00;;;;;;5032125;28;21103;-68
2023/04/30 08:30:03;;;;;;;740.67;683.17;;;21.80;1.00;;;;;;5028358;28;20988;-70
2023/04/30 08:32:29;;;;;;;577.87;534.77;;;22.30;1.00;;;;;;5013241;28;20430;-69
2023/04/30 08:34:55;;;;;;;638.47;589.23;;;21.30;1.00;;;;;;5031860;28;20528;-70
2023/04/30 08:37:20;;;;;;;616.07;567.63;;;21.50;1.00;;;;;;5028466;28;20517;-68
2023/04/30 08:39:46;;;;;;;620.73;574.20;;;21.80;1.00;;;;;;5028165;28;20612;-70
2023/04/30 08:42:14;;;;;;;661.57;613.60;;;22.60;1.00;;;;;;5032052;28;20632;-69
2023/04/30 08:44:42;;;;;;;754.17;694.10;;;22.70;1.00;;;;;;5031952;28;20218;-69
2023/04/30 08:47:13;;;;;;;700.47;649.13;;;21.70;1.00;;;;;;5014564;28;20430;-70
2023/04/30 08:49:40;;;;;;;674.57;623.30;;;21.50;1.00;;;;;;5032507;28;20401;-69
2023/04/30 08:52:06;;;;;;;661.43;615.13;;;20.90;1.00;;;;;;5032077;28;20474;-69
2023/04/30 08:54:34;;;;;;;599.33;554.33;;;19.70;1.00;;;;;;5033578;28;20426;-70
2023/04/30 08:57:00;;;;;;;635.83;589.20;;;18.70;1.00;;;;;;5033712;28;20410;-69
2023/04/30 08:59:26;;;;;;;696.53;642.73;;;18.30;1.00;;;;;;5033369;28;20406;-69
2023/04/30 09:01:51;;;;;;;547.77;510.47;;;18.10;1.00;;;;;;5032482;28;20425;-69
2023/04/30 09:04:17;;;;;;;359.60;334.73;;;17.70;1.00;;;;;;5032379;28;20226;-69
2023/04/30 09:06:43;;;;;;;517.17;482.63;;;17.80;1.00;;;;;;5031908;28;20225;-70
2023/04/30 09:09:11;;;;;;;519.63;482.60;;;17.90;1.00;;;;;;5033268;28;20262;-69
2023/04/30 09:11:37;;;;;;;451.17;421.73;;;17.80;1.00;;;;;;5036056;28;20414;-69
2023/04/30 09:14:03;;;;;;;264.00;246.50;;;17.90;1.00;;;;;;5036207;28;20491;-69
2023/04/30 09:16:43;;;;;;;405.83;377.63;;;17.80;1.00;;;;;;5036088;28;20175;-69
2023/04/30 09:19:21;;;;;;;450.40;418.40;;;18.00;1.00;;;;;;5035883;28;20414;-69
2023/04/30 09:21:46;;;;;;;660.50;612.30;;;18.40;1.00;;;;;;5035546;28;20487;-69
2023/04/30 09:24:12;;;;;;;518.83;481.87;;;18.40;1.00;;;;;;5035565;28;20781;-70
2023/04/30 09:26:38;;;;;;;473.33;440.73;;;18.50;1.00;;;;;;5035246;28;20298;-71
2023/04/30 09:29:07;;;;;;;528.10;489.17;;;18.60;1.00;;;;;;5035550;28;20622;-70
2023/04/30 09:31:37;;;;;;;674.87;623.77;;;18.50;1.00;;;;;;5017461;28;20426;-69
2023/04/30 09:34:04;;;;;;;478.37;443.50;;;18.40;1.00;;;;;;5017596;28;20421;-69
2023/04/30 09:36:31;;;;;;;418.27;388.70;;;18.30;1.00;;;;;;5035441;28;20418;-70
2023/04/30 09:39:10;;;;;;;566.07;526.00;;;18.50;1.00;;;;;;5035939;28;20806;-70
2023/04/30 09:41:36;;;;;;;318.17;297.00;;;18.60;1.00;;;;;;5035713;28;20417;-70
2023/04/30 09:44:02;;;;;;;643.47;594.90;;;18.80;1.00;;;;;;5018327;28;20802;-70
2023/04/30 09:46:32;;;;;;;724.63;663.00;;;18.60;1.00;;;;;;5038063;28;20203;-70
2023/04/30 09:49:00;;;;;;;629.83;582.27;;;18.30;1.00;;;;;;5036590;28;20515;-70
2023/04/30 09:51:26;;;;;;;564.17;522.33;;;18.00;1.00;;;;;;5035611;28;20501;-68
2023/04/30 09:53:53;;;;;;;653.50;603.70;;;18.00;1.00;;;;;;5018336;28;20935;-69
2023/04/30 09:56:21;;;;;;;526.43;489.27;;;18.40;1.00;;;;;;5036091;28;20422;-70
2023/04/30 09:58:51;;;;;;;540.93;502.57;;;18.00;1.00;;;;;;5035468;28;20510;-68
2023/04/30 10:01:18;;;;;;;539.83;497.10;;;18.10;1.00;;;;;;5035039;28;20405;-69
2023/04/30 10:03:46;;;;;;;427.63;398.57;;;18.20;1.00;;;;;;5034301;28;20479;-70
2023/04/30 10:06:12;;;;;;;476.90;444.17;;;18.40;1.00;;;;;;5034815;28;21046;-70
2023/04/30 10:08:41;;;;;;;542.57;504.23;;;18.60;1.00;;;;;;5016934;28;20418;-70
2023/04/30 10:11:11;;;;;;;377.47;349.97;;;18.70;1.00;;;;;;5034783;28;20429;-70
2023/04/30 10:14:03;;;;;;;659.30;609.37;;;18.70;1.00;;;;;;5034770;28;20417;-70
2023/04/30 10:16:53;;;;;;;513.93;477.90;;;18.70;1.00;;;;;;5033299;28;20433;-69
2023/04/30 10:19:29;;;;;;;498.77;464.37;;;18.90;1.00;;;;;;5033399;28;20505;-70
2023/04/30 10:21:55;;;;;;;578.47;534.37;;;18.60;1.00;;;;;;5032392;28;20448;-69
2023/04/30 10:24:21;;;;;;;738.27;680.27;;;18.60;1.00;;;;;;5033743;28;20442;-70
2023/04/30 10:26:47;;;;;;;647.60;601.73;;;18.30;1.00;;;;;;5033841;28;20520;-69
2023/04/30 10:29:14;;;;;;;418.00;388.73;;;17.70;1.00;;;;;;5034148;28;20183;-70
2023/04/30 10:31:46;;;;;;;589.70;548.77;;;17.70;1.00;;;;;;5034426;28;20774;-70
2023/04/30 10:34:22;;;;;;;587.20;548.63;;;18.00;1.00;;;;;;5016696;28;20466;-70
2023/04/30 10:36:53;;;;;;;709.37;652.70;;;17.90;1.00;;;;;;5016404;28;20919;-70
2023/04/30 10:39:26;;;;;;;361.80;336.37;;;17.50;1.00;;;;;;5034485;28;20418;-70
2023/04/30 10:42:03;;;;;;;406.97;379.17;;;17.60;1.00;;;;;;5034194;28;20410;-70
2023/04/30 10:44:36;;;;;;;654.90;606.00;;;17.60;1.00;;;;;;5054639;22;20491;-73
2023/04/30 10:47:02;;;;;;;371.63;346.70;;;17.90;1.00;;;;;;5020254;28;20480;-72
2023/04/30 10:49:28;;;;;;;420.37;393.00;;;18.00;1.00;;;;;;5007160;28;20433;-70
2023/04/30 10:51:57;;;;;;;441.17;409.00;;;18.10;1.00;;;;;;5036045;28;20426;-69
2023/04/30 10:54:48;;;;;;;467.87;433.13;;;18.30;1.00;;;;;;5037761;28;20430;-69
2023/04/30 10:57:17;;;;;;;538.63;497.83;;;18.40;1.00;;;;;;5019946;28;20555;-69
2023/04/30 10:59:53;;;;;;;618.17;572.53;;;18.40;1.00;;;;;;5032163;28;20477;-68
2023/04/30 11:02:19;;;;;;;523.37;486.73;;;18.60;1.00;;;;;;5022514;28;20504;-68
2023/04/30 11:05:06;;;;;;;440.37;412.20;;;18.60;1.00;;;;;;5033485;28;20489;-67
2023/04/30 11:07:32;;;;;;;602.00;557.30;;;19.10;1.00;;;;;;5020451;28;20755;-69
2023/04/30 11:10:00;;;;;;;457.03;424.00;;;19.40;1.00;;;;;;5031924;28;20441;-68
2023/04/30 11:12:29;;;;;;;399.83;373.50;;;19.60;1.00;;;;;;5018180;28;20463;-68
2023/04/30 11:15:12;;;;;;;647.90;602.37;;;19.90;1.00;;;;;;5018230;28;20439;-68
2023/04/30 11:17:37;;;;;;;514.77;476.90;;;19.70;1.00;;;;;;5036807;28;20795;-68
2023/04/30 11:20:04;;;;;;;421.83;393.13;;;19.60;1.00;;;;;;5022420;28;20439;-68
2023/04/30 11:22:34;;;;;;;417.73;389.20;;;19.80;1.00;;;;;;5019873;28;20540;-69
2023/04/30 11:25:10;;;;;;;449.47;416.53;;;19.30;1.00;;;;;;5025776;28;20445;-68
2023/04/30 11:27:37;;;;;;;439.57;408.97;;;18.70;1.00;;;;;;5024287;28;20948;-69
2023/04/30 11:30:10;;;;;;;329.60;307.17;;;18.50;1.00;;;;;;5024066;28;20418;-68
2023/04/30 11:32:37;;;;;;;603.77;561.40;;;18.70;1.00;;;;;;5012402;28;20415;-70
2023/04/30 11:35:05;;;;;;;533.17;494.50;;;18.70;1.00;;;;;;5012668;28;20505;-69
2023/04/30 11:37:37;;;;;;;567.93;525.60;;;19.20;1.00;;;;;;5028379;28;20488;-69
2023/04/30 11:40:06;;;;;;;560.87;520.57;;;18.90;1.00;;;;;;5023991;28;20995;-69
2023/04/30 11:42:35;;;;;;;593.60;551.27;;;19.00;1.00;;;;;;4994143;28;20423;-70
2023/04/30 11:45:12;;;;;;;546.67;507.70;;;19.00;1.00;;;;;;5023806;28;20457;-69
2023/04/30 11:47:47;;;;;;;562.63;522.27;;;19.40;1.00;;;;;;5014109;28;20434;-68
2023/04/30 11:50:15;;;;;;;594.70;551.93;;;19.60;1.00;;;;;;5017631;28;20426;-68
2023/04/30 11:52:44;;;;;;;536.63;498.37;;;20.00;1.00;;;;;;5027761;28;20429;-68
2023/04/30 11:55:17;;;;;;;583.40;541.30;;;19.90;1.00;;;;;;5031810;28;20537;-69
2023/04/30 11:57:48;;;;;;;541.30;503.47;;;19.70;1.00;;;;;;5023156;28;20526;-69
2023/04/30 12:00:16;;;;;;;657.67;609.20;;;19.40;1.00;;;;;;5030221;28;20457;-69
2023/04/30 12:02:44;;;;;;;509.53;475.30;;;19.50;1.00;;;;;;5031183;28;20919;-71
2023/04/30 12:05:16;;;;;;;489.07;451.50;;;19.60;1.00;;;;;;4997426;28;20466;-72
2023/04/30 12:07:50;;;;;;;581.07;537.37;;;19.80;1.00;;;;;;5013212;28;20427;-72
2023/04/30 12:10:19;;;;;;;591.17;550.63;;;20.30;1.00;;;;;;5021149;28;20516;-72
2023/04/30 12:12:49;;;;;;;705.67;653.37;;;20.30;1.00;;;;;;5013622;28;20787;-72
2023/04/30 12:15:25;;;;;;;543.53;507.33;;;19.90;1.00;;;;;;5029162;28;21790;-72
2023/04/30 12:17:50;;;;;;;577.83;535.80;;;20.00;1.00;;;;;;5012509;28;20521;-72
2023/04/30 12:20:17;;;;;;;365.40;339.93;;;20.00;1.00;;;;;;5021088;28;20533;-72